Terminal Aerodrome Forecast
Issued by NWS

Home | Current Version | Previous Version | Text Only | Print | Product List | Glossary On
Versions: 1 2 3 4 5 6 7 8 9 10 11 12 13 14 15 16
000
FTUS44 KOHX 011123
TAFCKV
TAF
KCKV 011123Z 0112/0212 21004KT P6SM VCSH BKN040 OVC120
     FM011400 27007KT P6SM VCTS BKN040CB OVC120
     FM011700 23006KT 6SM -SHRA VCTS OVC040CB
      TEMPO 0118/0122 3SM TSRA BR OVC020CB
     FM020100 20005KT 6SM -SHRA VCTS OVC035CB=

USA.gov is the U.S. government's official web portal to all federal, state and local government web resources and services.